createdAt,value
2022-08-09T00:00:04.261Z,102387.25
2022-08-09T00:02:33.920Z,102383.00
2022-08-09T00:06:15.638Z,102379.47
2022-08-09T00:07:54.257Z,102375.91
2022-08-09T00:10:24.634Z,102381.38
2022-08-09T00:12:53.510Z,102381.28
2022-08-09T00:15:35.494Z,102386.66
2022-08-09T00:18:12.549Z,102384.13
2022-08-09T00:20:50.433Z,102393.09
2022-08-09T00:23:55.927Z,102386.91
2022-08-09T00:26:08.730Z,102386.94
2022-08-09T00:28:40.262Z,102390.56
2022-08-09T00:31:50.397Z,102392.44
2022-08-09T00:33:57.548Z,102389.88
2022-08-09T00:38:57.120Z,102395.66
2022-08-09T00:44:13.488Z,102397.81
2022-08-09T00:44:26.013Z,102397.84
2022-08-09T00:47:04.786Z,102393.47
2022-08-09T00:49:34.745Z,102394.44
2022-08-09T00:52:17.671Z,102391.94
2022-08-09T00:54:46.135Z,102395.59
2022-08-09T00:57:24.623Z,102395.66
2022-08-09T01:00:05.177Z,102383.06
2022-08-09T01:02:50.639Z,102382.84
2022-08-09T01:05:53.637Z,102387.25
2022-08-09T01:08:26.945Z,102382.94
2022-08-09T01:11:08.428Z,102382.22
2022-08-09T01:13:58.735Z,102385.31
2022-08-09T01:16:31.369Z,102382.88
2022-08-09T01:19:04.509Z,102386.56
2022-08-09T01:21:51.215Z,102390.16
2022-08-09T01:24:32.019Z,102391.81
2022-08-09T01:27:07.881Z,102390.03
2022-08-09T01:29:55.744Z,102370.56
2022-08-09T01:32:33.271Z,102388.34
2022-08-09T01:35:06.850Z,102390.28
2022-08-09T01:38:06.303Z,102388.75
2022-08-09T01:40:28.407Z,102385.97
2022-08-09T01:42:59.200Z,102390.53
2022-08-09T01:45:30.993Z,102385.28
2022-08-09T01:48:00.833Z,102402.19
2022-08-09T01:50:37.028Z,102399.47
2022-08-09T01:53:19.825Z,102388.78
2022-08-09T01:55:51.378Z,102399.28
2022-08-09T01:58:27.279Z,102399.31
2022-08-09T02:00:59.063Z,102396.59
2022-08-09T02:03:30.291Z,102403.00
2022-08-09T02:06:03.642Z,102390.66
2022-08-09T02:08:56.921Z,102397.81
2022-08-09T02:11:42.250Z,102387.09
2022-08-09T02:14:25.616Z,102393.19
2022-08-09T02:17:15.154Z,102367.56
2022-08-09T02:19:46.009Z,102401.25
2022-08-09T02:22:31.744Z,102398.59
2022-08-09T02:25:15.422Z,102403.03
2022-08-09T02:27:58.328Z,102400.34
2022-08-09T02:30:44.121Z,102410.16
2022-08-09T02:33:19.375Z,102408.28
2022-08-09T02:36:02.012Z,102413.63
2022-08-09T02:38:35.555Z,102411.91
2022-08-09T02:41:09.300Z,102409.25
2022-08-09T02:43:42.395Z,102403.00
2022-08-09T02:46:27.937Z,102401.13
2022-08-09T02:49:02.851Z,102395.00
2022-08-09T02:51:40.221Z,102398.91
2022-08-09T02:54:13.930Z,102404.28
2022-08-09T02:56:51.416Z,102413.31
2022-08-09T02:59:26.564Z,102408.00
2022-08-09T03:02:09.742Z,102401.69
2022-08-09T03:04:46.830Z,102404.41
2022-08-09T03:07:20.095Z,102403.53
2022-08-09T03:09:56.269Z,102399.03
2022-08-09T03:12:27.164Z,102401.81
2022-08-09T03:14:56.278Z,102401.88
2022-08-09T03:17:27.547Z,102399.16
2022-08-09T03:20:02.985Z,102402.63
2022-08-09T03:22:42.092Z,102408.00
2022-08-09T03:25:21.637Z,102402.63
2022-08-09T03:27:57.860Z,102404.41
2022-08-09T03:30:33.475Z,102410.63
2022-08-09T03:33:16.970Z,102403.53
2022-08-09T03:36:12.523Z,102400.88
2022-08-09T03:38:42.005Z,102410.63
2022-08-09T03:41:14.731Z,102409.69
2022-08-09T03:43:43.035Z,102415.09
2022-08-09T03:46:31.357Z,102410.66
2022-08-09T03:49:04.330Z,102415.22
2022-08-09T03:51:57.325Z,102419.88
2022-08-09T03:54:29.262Z,102414.56
2022-08-09T03:56:58.818Z,102412.00
2022-08-09T03:59:43.291Z,102406.78
2022-08-09T04:02:26.925Z,102412.28
2022-08-09T04:05:06.615Z,102406.97
2022-08-09T04:07:53.051Z,102403.31
2022-08-09T04:10:29.368Z,102406.53
2022-08-09T04:13:01.055Z,102407.25
2022-08-09T04:16:18.292Z,102412.41
2022-08-09T04:18:21.600Z,102416.00
2022-08-09T04:20:51.716Z,102416.06
2022-08-09T04:23:23.304Z,102415.97
2022-08-09T04:25:53.974Z,102414.25
2022-08-09T04:28:33.789Z,102393.69
2022-08-09T04:31:09.251Z,102426.53
2022-08-09T04:33:51.800Z,102416.78
2022-08-09T04:36:25.056Z,102420.38
2022-08-09T04:38:53.672Z,102397.16
2022-08-09T04:41:23.925Z,102424.66
2022-08-09T04:44:07.252Z,102424.66
2022-08-09T04:46:59.782Z,102424.47
2022-08-09T04:49:40.485Z,102436.00
2022-08-09T04:52:18.425Z,102410.19
2022-08-09T04:54:51.671Z,102432.19
2022-08-09T04:57:23.802Z,102436.50
2022-08-09T04:59:54.011Z,102437.53
2022-08-09T05:02:22.812Z,102450.94
2022-08-09T05:04:55.264Z,102448.25
2022-08-09T05:07:29.282Z,102450.78
2022-08-09T05:10:01.615Z,102455.13
2022-08-09T05:12:33.196Z,102449.78
2022-08-09T05:15:11.469Z,102446.88
2022-08-09T05:18:42.728Z,102444.13
2022-08-09T05:20:29.789Z,102444.03
2022-08-09T05:23:53.989Z,102453.91
2022-08-09T05:25:50.638Z,102445.75
2022-08-09T05:28:19.928Z,102454.53
2022-08-09T05:30:48.598Z,102455.31
2022-08-09T05:33:19.840Z,102455.19
2022-08-09T05:35:54.906Z,102458.66
2022-08-09T05:38:27.995Z,102468.41
2022-08-09T05:40:56.153Z,102472.72
2022-08-09T05:43:24.664Z,102463.69
2022-08-09T05:45:59.701Z,102465.28
2022-08-09T05:48:33.224Z,102469.56
2022-08-09T05:51:42.789Z,102480.19
2022-08-09T05:53:57.733Z,102476.47
2022-08-09T05:56:28.149Z,102491.31
2022-08-09T05:58:59.089Z,102484.03
2022-08-09T06:01:33.713Z,102491.03
2022-08-09T06:04:12.164Z,102499.81
2022-08-09T06:06:46.787Z,102500.56
2022-08-09T06:09:40.849Z,102501.19
2022-08-09T06:12:09.003Z,102505.50
2022-08-09T06:14:37.221Z,102504.50
2022-08-09T06:17:09.568Z,102504.28
2022-08-09T06:19:38.301Z,102506.88
2022-08-09T06:22:15.279Z,102503.91
2022-08-09T06:24:45.129Z,102507.41
2022-08-09T06:27:15.571Z,102505.53
2022-08-09T06:29:47.967Z,102506.88
2022-08-09T06:33:13.394Z,102499.69
2022-08-09T06:35:21.185Z,102497.56
2022-08-09T06:38:05.633Z,102499.06
2022-08-09T06:40:36.019Z,102494.41
2022-08-09T06:43:04.419Z,102511.44
2022-08-09T06:46:05.463Z,102511.31
2022-08-09T06:48:30.228Z,102515.47
2022-08-09T06:50:58.977Z,102510.03
2022-08-09T06:53:33.273Z,102509.81
2022-08-09T06:56:09.616Z,102516.97
2022-08-09T07:00:47.243Z,102511.50
2022-08-09T07:01:35.530Z,102514.28
2022-08-09T07:04:19.765Z,102520.13
2022-08-09T07:06:53.314Z,102519.63
2022-08-09T07:09:54.874Z,102514.22
2022-08-09T07:12:17.528Z,102519.47
2022-08-09T07:14:51.461Z,102523.81
2022-08-09T07:17:20.159Z,102520.16
2022-08-09T07:19:50.934Z,102521.63
2022-08-09T07:22:34.297Z,102517.09
2022-08-09T07:25:05.176Z,102517.25
2022-08-09T07:27:43.134Z,102522.41
2022-08-09T07:30:24.728Z,102525.50
2022-08-09T07:32:54.784Z,102523.72
2022-08-09T07:35:23.461Z,102525.25
2022-08-09T07:37:54.123Z,102527.31
2022-08-09T07:40:37.263Z,102530.22
2022-08-09T07:43:17.950Z,102526.66
2022-08-09T07:45:46.358Z,102521.81
2022-08-09T07:48:28.836Z,102531.34
2022-08-09T07:51:09.105Z,102524.91
2022-08-09T07:54:06.622Z,102526.44
2022-08-09T07:56:44.991Z,102523.78
2022-08-09T07:59:25.351Z,102529.03
2022-08-09T08:02:04.824Z,102529.72
2022-08-09T08:04:34.179Z,102535.69
2022-08-09T08:07:14.696Z,102505.63
2022-08-09T08:10:08.363Z,102524.78
2022-08-09T08:12:43.329Z,102531.06
2022-08-09T08:15:16.781Z,102535.22
2022-08-09T08:17:53.806Z,102529.41
2022-08-09T08:20:29.709Z,102529.16
2022-08-09T08:23:03.811Z,102528.22
2022-08-09T08:25:46.419Z,102526.00
2022-08-09T08:28:18.263Z,102532.19
2022-08-09T08:30:55.922Z,102538.63
2022-08-09T08:33:24.741Z,102530.69
2022-08-09T08:35:59.238Z,102536.41
2022-08-09T08:38:29.698Z,102533.69
2022-08-09T08:40:58.906Z,102537.53
2022-08-09T08:43:27.643Z,102532.88
2022-08-09T08:46:10.128Z,102535.88
2022-08-09T08:48:53.591Z,102532.97
2022-08-09T08:51:23.527Z,102540.16
2022-08-09T08:54:03.109Z,102533.78
2022-08-09T08:56:35.695Z,102530.56
2022-08-09T08:59:18.799Z,102497.19
2022-08-09T09:01:52.920Z,102537.41
2022-08-09T09:04:31.190Z,102526.91
2022-08-09T09:07:09.214Z,102526.91
2022-08-09T09:09:50.247Z,102531.72
2022-08-09T09:12:31.448Z,102520.59
2022-08-09T09:15:03.313Z,102532.78
2022-08-09T09:17:49.429Z,102526.81
2022-08-09T09:20:21.595Z,102527.94
2022-08-09T09:23:01.749Z,102533.53
2022-08-09T09:26:03.245Z,102536.41
2022-08-09T09:29:03.107Z,102527.16
2022-08-09T09:32:04.361Z,102535.81
2022-08-09T09:34:18.426Z,102531.41
2022-08-09T09:36:54.122Z,102531.56
2022-08-09T09:39:42.894Z,102524.53
2022-08-09T09:42:24.288Z,102532.28
2022-08-09T09:44:58.955Z,102529.00
2022-08-09T09:47:28.870Z,102536.81
2022-08-09T09:50:15.132Z,102532.63
2022-08-09T09:52:53.648Z,102532.00
2022-08-09T09:55:27.977Z,102532.41
2022-08-09T09:58:17.186Z,102528.75
2022-08-09T10:00:54.344Z,102525.13
2022-08-09T10:03:42.690Z,102535.91
2022-08-09T10:06:13.621Z,102527.56
2022-08-09T10:08:54.516Z,102530.19
2022-08-09T10:12:04.457Z,102522.72
2022-08-09T10:14:31.060Z,102531.09
2022-08-09T10:17:40.618Z,102519.22
2022-08-09T10:19:58.836Z,102527.28
2022-08-09T10:22:34.290Z,102531.53
2022-08-09T10:25:11.222Z,102534.06
2022-08-09T10:27:45.211Z,102528.84
2022-08-09T10:34:07.934Z,102523.66
2022-08-09T10:36:04.997Z,102520.16
2022-08-09T10:38:57.159Z,102520.78
2022-08-09T10:41:22.865Z,102518.56
2022-08-09T10:44:01.297Z,102510.66
2022-08-09T10:46:57.578Z,102513.53
2022-08-09T10:49:50.767Z,102523.53
2022-08-09T10:52:42.835Z,102525.44
2022-08-09T10:55:26.086Z,102512.22
2022-08-09T10:57:59.779Z,102514.00
2022-08-09T11:00:36.938Z,102494.53
2022-08-09T11:03:51.508Z,102510.06
2022-08-09T11:06:22.856Z,102513.41
2022-08-09T11:08:53.939Z,102510.66
2022-08-09T11:11:24.581Z,102510.19
2022-08-09T11:14:31.847Z,102514.13
2022-08-09T11:17:00.259Z,102509.84
2022-08-09T11:20:19.736Z,102509.63
2022-08-09T11:23:00.574Z,102499.63
2022-08-09T11:25:48.796Z,102497.88
2022-08-09T11:28:38.840Z,102488.34
2022-08-09T11:31:52.981Z,102491.81
2022-08-09T11:34:36.091Z,102484.88
2022-08-09T11:37:17.900Z,102481.41
2022-08-09T11:40:02.923Z,102486.03
2022-08-09T11:42:48.516Z,102475.63
2022-08-09T11:45:23.332Z,102492.22
2022-08-09T11:48:02.739Z,102482.25
2022-08-09T11:52:37.362Z,102487.50
2022-08-09T11:53:59.332Z,102469.84
2022-08-09T11:56:47.830Z,102478.13
2022-08-09T11:59:30.650Z,102460.47
2022-08-09T12:02:35.268Z,102468.66
2022-08-09T12:04:58.750Z,102457.34
2022-08-09T12:07:41.054Z,102450.59
2022-08-09T12:10:14.018Z,102449.34
2022-08-09T12:13:03.795Z,102447.47
2022-08-09T12:15:52.397Z,102447.06
2022-08-09T12:18:30.366Z,102458.00
2022-08-09T12:21:03.284Z,102455.38
2022-08-09T12:23:58.055Z,102455.66
2022-08-09T12:26:26.218Z,102449.00
2022-08-09T12:29:14.957Z,102449.34
2022-08-09T12:31:59.004Z,102447.78
2022-08-09T12:34:36.627Z,102442.22
2022-08-09T12:37:21.983Z,102441.47
2022-08-09T12:40:02.900Z,102432.03
2022-08-09T12:42:31.299Z,102433.97
2022-08-09T12:45:00.195Z,102425.44
2022-08-09T12:47:32.695Z,102415.97
2022-08-09T12:50:19.956Z,102429.94
2022-08-09T12:53:09.161Z,102424.34
2022-08-09T12:56:15.249Z,102434.25
2022-08-09T12:58:29.291Z,102423.47
2022-08-09T13:00:58.438Z,102423.09
2022-08-09T13:03:53.688Z,102425.34
2022-08-09T13:06:39.868Z,102415.47
2022-08-09T13:09:13.553Z,102420.97
2022-08-09T13:11:43.152Z,102390.03
2022-08-09T13:14:41.192Z,102416.38
2022-08-09T13:17:03.825Z,102428.25
2022-08-09T13:20:10.403Z,102422.06
2022-08-09T13:22:36.207Z,102420.84
2022-08-09T13:25:07.587Z,102414.03
2022-08-09T13:27:39.449Z,102403.91
2022-08-09T13:30:51.591Z,102408.63
2022-08-09T13:33:06.929Z,102406.31
2022-08-09T13:36:38.269Z,102406.81
2022-08-09T13:38:54.666Z,102409.63
2022-08-09T13:41:57.881Z,102406.88
2022-08-09T13:44:13.770Z,102405.16
2022-08-09T13:47:17.959Z,102398.88
2022-08-09T13:49:33.985Z,102399.88
2022-08-09T13:52:09.015Z,102401.41
2022-08-09T13:54:42.971Z,102392.13
2022-08-09T13:57:36.555Z,102399.91
2022-08-09T14:00:12.611Z,102389.59
2022-08-09T14:03:04.678Z,102379.72
2022-08-09T14:05:58.520Z,102387.22
2022-08-09T14:08:19.544Z,102385.63
2022-08-09T14:10:52.877Z,102388.91
2022-08-09T14:14:15.971Z,102387.56
2022-08-09T14:16:17.352Z,102393.47
2022-08-09T14:18:49.542Z,102403.28
2022-08-09T14:21:20.180Z,102400.19
2022-08-09T14:23:54.919Z,102399.69
2022-08-09T14:26:30.576Z,102393.41
2022-08-09T14:29:02.088Z,102398.13
2022-08-09T14:31:36.426Z,102393.63
2022-08-09T14:34:31.243Z,102400.22
2022-08-09T14:37:06.878Z,102405.44
2022-08-09T14:39:45.917Z,102388.31
2022-08-09T14:42:31.827Z,102403.59
2022-08-09T14:46:39.673Z,102394.88
2022-08-09T14:47:57.400Z,102396.47
2022-08-09T14:50:30.605Z,102396.56
2022-08-09T14:52:59.743Z,102405.81
2022-08-09T14:55:32.129Z,102401.78
2022-08-09T14:58:05.774Z,102403.56
2022-08-09T15:00:36.952Z,102406.16
2022-08-09T15:03:07.455Z,102397.00
2022-08-09T15:05:37.945Z,102403.19
2022-08-09T15:08:06.261Z,102402.38
2022-08-09T15:10:39.266Z,102399.19
2022-08-09T15:13:09.330Z,102396.94
2022-08-09T15:15:39.325Z,102400.06
2022-08-09T15:18:12.334Z,102397.41
2022-08-09T15:21:55.997Z,102389.84
2022-08-09T15:24:00.839Z,102390.41
2022-08-09T15:26:31.809Z,102389.34
2022-08-09T15:29:04.789Z,102391.66
2022-08-09T15:31:41.799Z,102391.66
2022-08-09T15:34:33.265Z,102395.19
2022-08-09T15:37:01.063Z,102394.81
2022-08-09T15:39:43.970Z,102388.69
2022-08-09T15:42:20.357Z,102386.63
2022-08-09T15:44:51.523Z,102382.00
2022-08-09T15:47:23.587Z,102385.00
2022-08-09T15:50:04.915Z,102379.72
2022-08-09T15:52:35.687Z,102382.53
2022-08-09T15:55:05.009Z,102366.34
2022-08-09T15:57:35.604Z,102377.78
2022-08-09T16:00:24.265Z,102379.75
2022-08-09T16:02:56.503Z,102378.38
2022-08-09T16:05:53.059Z,102377.63
2022-08-09T16:08:31.048Z,102378.22
2022-08-09T16:11:01.694Z,102374.69
2022-08-09T16:14:04.082Z,102371.81
2022-08-09T16:16:20.154Z,102373.16
2022-08-09T16:18:54.317Z,102370.75
2022-08-09T16:21:25.131Z,102367.34
2022-08-09T16:23:55.531Z,102367.03
2022-08-09T16:26:35.464Z,102377.91
2022-08-09T16:29:11.465Z,102372.69
2022-08-09T16:32:18.010Z,102368.34
2022-08-09T16:34:55.990Z,102369.09
2022-08-09T16:37:53.404Z,102366.38
2022-08-09T16:40:10.363Z,102361.78
2022-08-09T16:42:39.370Z,102353.97
2022-08-09T16:45:14.354Z,102352.56
2022-08-09T16:48:38.244Z,102368.50
2022-08-09T16:50:34.951Z,102372.97
2022-08-09T16:53:08.709Z,102371.00
2022-08-09T16:55:58.479Z,102369.97
2022-08-09T16:58:25.984Z,102372.03
2022-08-09T17:00:54.909Z,102360.28
2022-08-09T17:03:25.090Z,102376.97
2022-08-09T17:06:07.004Z,102370.41
2022-08-09T17:09:00.095Z,102378.81
2022-08-09T17:11:41.928Z,102375.63
2022-08-09T17:14:25.685Z,102375.84
2022-08-09T17:16:59.808Z,102387.97
2022-08-09T17:19:46.345Z,102391.25
2022-08-09T17:22:23.977Z,102392.66
2022-08-09T17:24:54.926Z,102388.91
2022-08-09T17:27:23.909Z,102388.41
2022-08-09T17:29:52.088Z,102392.53
2022-08-09T17:32:26.686Z,102394.47
2022-08-09T17:35:11.337Z,102397.19
2022-08-09T17:38:02.643Z,102401.66
2022-08-09T17:40:30.438Z,102393.91
2022-08-09T17:43:10.551Z,102397.47
2022-08-09T17:46:03.517Z,102404.91
2022-08-09T17:48:29.195Z,102399.75
2022-08-09T17:51:08.714Z,102390.38
2022-08-09T17:53:42.798Z,102411.16
2022-08-09T17:56:11.286Z,102406.84
2022-08-09T17:58:42.775Z,102407.78
2022-08-09T18:01:22.514Z,102415.44
2022-08-09T18:03:52.241Z,102412.44
2022-08-09T18:06:32.296Z,102419.22
2022-08-09T18:09:03.636Z,102428.53
2022-08-09T18:12:05.708Z,102423.88
2022-08-09T18:14:22.619Z,102424.34
2022-08-09T18:16:52.973Z,102432.59
2022-08-09T18:20:55.247Z,102421.63
2022-08-09T18:22:16.720Z,102426.88
2022-08-09T18:24:46.326Z,102417.25
2022-08-09T18:27:49.295Z,102425.19
2022-08-09T18:30:41.836Z,102427.59
2022-08-09T18:32:54.295Z,102431.13
2022-08-09T18:35:58.082Z,102435.13
2022-08-09T18:38:13.181Z,102421.06
2022-08-09T18:40:42.955Z,102424.41
2022-08-09T18:43:12.711Z,102430.31
2022-08-09T18:46:46.731Z,102429.22
2022-08-09T18:48:30.154Z,102431.53
2022-08-09T18:51:01.023Z,102428.38
2022-08-09T18:53:55.953Z,102427.00
2022-08-09T18:56:27.909Z,102429.63
2022-08-09T18:58:56.861Z,102428.50
2022-08-09T19:01:25.781Z,102424.31
2022-08-09T19:04:01.158Z,102422.00
2022-08-09T19:06:34.987Z,102420.53
2022-08-09T19:09:09.007Z,102420.97
2022-08-09T19:11:48.517Z,102416.78
2022-08-09T19:14:24.461Z,102420.09
2022-08-09T19:16:57.597Z,102424.22
2022-08-09T19:19:28.111Z,102407.09
2022-08-09T19:22:06.500Z,102424.91
2022-08-09T19:25:07.659Z,102430.66
2022-08-09T19:27:28.556Z,102424.13
2022-08-09T19:30:22.454Z,102436.13
2022-08-09T19:32:45.704Z,102442.44
2022-08-09T19:35:17.412Z,102447.78
2022-08-09T19:37:56.345Z,102454.88
2022-08-09T19:40:34.590Z,102455.75
2022-08-09T19:43:09.952Z,102456.59
2022-08-09T19:45:40.573Z,102457.53
2022-08-09T19:48:10.752Z,102455.81
2022-08-09T19:50:50.827Z,102461.31
2022-08-09T19:53:22.403Z,102460.13
2022-08-09T19:56:02.826Z,102480.78
2022-08-09T19:58:34.935Z,102478.16
2022-08-09T20:01:04.176Z,102485.69
2022-08-09T20:04:17.183Z,102485.63
2022-08-09T20:06:23.874Z,102487.69
2022-08-09T20:08:59.357Z,102481.53
2022-08-09T20:11:33.949Z,102483.47
2022-08-09T20:14:13.087Z,102481.09
2022-08-09T20:16:53.674Z,102477.81
2022-08-09T20:19:46.455Z,102481.97
2022-08-09T20:22:14.234Z,102485.94
2022-08-09T20:24:43.113Z,102488.84
2022-08-09T20:27:23.734Z,102491.09
2022-08-09T20:29:52.016Z,102499.22
2022-08-09T20:32:30.588Z,102493.00
2022-08-09T20:35:02.037Z,102485.41
2022-08-09T20:38:08.575Z,102487.72
2022-08-09T20:40:26.350Z,102487.22
2022-08-09T20:43:00.367Z,102483.19
2022-08-09T20:46:00.704Z,102477.28
2022-08-09T20:48:33.413Z,102478.59
2022-08-09T20:51:03.134Z,102475.75
2022-08-09T20:53:36.846Z,102482.63
2022-08-09T20:56:17.380Z,102458.06
2022-08-09T20:58:57.781Z,102477.97
2022-08-09T21:01:34.342Z,102480.66
2022-08-09T21:05:50.728Z,102483.75
2022-08-09T21:07:12.938Z,102473.78
2022-08-09T21:09:55.551Z,102456.22
2022-08-09T21:15:15.982Z,102498.84
2022-08-09T21:18:21.966Z,102480.19
2022-08-09T21:20:35.481Z,102490.69
2022-08-09T21:23:04.594Z,102498.63
2022-08-09T21:25:55.329Z,102493.13
2022-08-09T21:28:34.598Z,102480.88
2022-08-09T21:31:16.501Z,102500.13
2022-08-09T21:33:50.831Z,102500.13
2022-08-09T21:36:23.531Z,102502.00
2022-08-09T21:38:57.989Z,102501.44
2022-08-09T21:42:04.872Z,102499.97
2022-08-09T21:44:33.701Z,102498.41
2022-08-09T21:47:05.696Z,102504.91
2022-08-09T21:49:40.633Z,102505.06
2022-08-09T21:52:17.161Z,102504.31
2022-08-09T21:54:50.921Z,102502.13
2022-08-09T21:57:37.563Z,102500.81
2022-08-09T22:00:10.493Z,102496.53
2022-08-09T22:02:40.235Z,102493.03
2022-08-09T22:05:22.751Z,102493.19
2022-08-09T22:07:53.386Z,102492.75
2022-08-09T22:10:24.088Z,102497.44
2022-08-09T22:12:53.040Z,102495.56
2022-08-09T22:15:23.571Z,102493.63
2022-08-09T22:18:12.120Z,102487.34
2022-08-09T22:20:40.835Z,102491.03
2022-08-09T22:23:10.460Z,102486.00
2022-08-09T22:26:08.074Z,102492.41
2022-08-09T22:28:29.545Z,102492.91
2022-08-09T22:31:01.473Z,102495.75
2022-08-09T22:33:37.629Z,102498.56
2022-08-09T22:36:19.378Z,102500.41
2022-08-09T22:38:48.447Z,102502.28
2022-08-09T22:41:16.466Z,102494.38
2022-08-09T22:44:02.275Z,102494.28
2022-08-09T22:48:16.314Z,102496.16
2022-08-09T22:49:23.407Z,102490.91
2022-08-09T22:51:57.359Z,102491.03
2022-08-09T22:54:27.486Z,102485.66
2022-08-09T22:56:58.699Z,102489.38
2022-08-09T22:59:57.637Z,102494.00
2022-08-09T23:02:16.117Z,102485.97
2022-08-09T23:04:54.113Z,102455.03
2022-08-09T23:08:27.700Z,102486.97
2022-08-09T23:10:30.376Z,102483.22
2022-08-09T23:12:58.555Z,102485.34
2022-08-09T23:15:26.675Z,102480.63
2022-08-09T23:17:56.142Z,102479.97
2022-08-09T23:20:26.159Z,102481.94
2022-08-09T23:22:54.204Z,102465.06
2022-08-09T23:25:22.348Z,102479.50
2022-08-09T23:28:14.246Z,102464.50
2022-08-09T23:30:38.347Z,102477.94
2022-08-09T23:33:06.370Z,102477.00
2022-08-09T23:36:05.873Z,102483.31
2022-08-09T23:38:23.949Z,102487.78
2022-08-09T23:40:52.263Z,102489.69
2022-08-09T23:43:20.653Z,102470.31
2022-08-09T23:45:49.315Z,102495.94
2022-08-09T23:48:18.117Z,102501.34
2022-08-09T23:50:47.894Z,102494.13
2022-08-09T23:53:15.971Z,102496.84
2022-08-09T23:55:49.289Z,102487.19
2022-08-09T23:58:26.170Z,102494.41
